createdAt,value
2022-09-14T00:00:12.047Z,9.00
2022-09-14T00:05:19.936Z,8.23
2022-09-14T00:10:27.753Z,8.07
2022-09-14T00:15:38.743Z,7.47
2022-09-14T00:20:46.565Z,8.03
2022-09-14T00:25:54.494Z,7.63
2022-09-14T00:31:03.495Z,7.93
2022-09-14T00:36:13.305Z,7.43
2022-09-14T00:41:22.968Z,8.10
2022-09-14T00:46:33.099Z,9.30
2022-09-14T00:51:43.175Z,11.43
2022-09-14T00:56:52.141Z,10.67
2022-09-14T01:02:01.569Z,9.67
2022-09-14T01:07:12.572Z,10.73
2022-09-14T01:12:23.567Z,10.43
2022-09-14T01:17:34.595Z,10.93
2022-09-14T01:22:47.000Z,9.30
2022-09-14T01:27:56.240Z,11.83
2022-09-14T01:33:07.985Z,10.97
2022-09-14T01:38:18.959Z,10.40
2022-09-14T01:43:29.926Z,11.60
2022-09-14T01:48:43.704Z,11.27
2022-09-14T01:53:53.797Z,9.60
2022-09-14T01:59:04.738Z,8.40
2022-09-14T02:04:16.084Z,8.43
2022-09-14T02:09:25.608Z,9.50
2022-09-14T02:14:33.415Z,8.90
2022-09-14T02:19:44.712Z,7.97
2022-09-14T02:24:52.688Z,10.23
2022-09-14T02:30:00.771Z,11.10
2022-09-14T02:35:12.196Z,12.00
2022-09-14T02:40:23.279Z,11.90
2022-09-14T02:45:36.202Z,13.03
2022-09-14T02:50:47.193Z,12.03
2022-09-14T02:55:58.129Z,11.30
2022-09-14T03:01:06.613Z,10.87
2022-09-14T03:06:14.599Z,12.47
2022-09-14T03:11:22.358Z,12.07
2022-09-14T03:16:30.221Z,12.03
2022-09-14T03:21:38.874Z,12.33
2022-09-14T03:26:47.510Z,13.00
2022-09-14T03:31:55.567Z,12.53
2022-09-14T03:37:03.371Z,12.27
2022-09-14T03:42:11.187Z,12.20
2022-09-14T03:47:19.046Z,13.97
2022-09-14T03:52:26.869Z,14.63
2022-09-14T03:57:34.749Z,11.87
2022-09-14T04:02:42.693Z,13.17
2022-09-14T04:07:50.699Z,11.80
2022-09-14T04:12:59.607Z,11.30
2022-09-14T04:18:07.496Z,11.70
2022-09-14T04:23:15.342Z,12.00
2022-09-14T04:28:23.206Z,11.43
2022-09-14T04:33:33.371Z,12.37
2022-09-14T04:38:41.981Z,11.90
2022-09-14T04:43:51.084Z,11.37
2022-09-14T04:48:59.544Z,11.17
2022-09-14T04:54:07.886Z,12.03
2022-09-14T04:59:16.271Z,10.60
2022-09-14T05:04:24.078Z,11.30
2022-09-14T05:09:32.053Z,11.90
2022-09-14T05:14:41.257Z,11.60
2022-09-14T05:19:49.534Z,10.57
2022-09-14T05:24:57.342Z,11.83
2022-09-14T05:30:05.474Z,10.83
2022-09-14T05:35:13.553Z,12.13
2022-09-14T05:40:21.808Z,12.33
2022-09-14T05:45:29.657Z,10.40
2022-09-14T05:50:37.499Z,10.30
2022-09-14T05:55:45.393Z,10.30
2022-09-14T06:00:53.187Z,12.07
2022-09-14T06:06:01.030Z,10.93
2022-09-14T06:11:11.274Z,10.67
2022-09-14T06:16:20.940Z,10.47
2022-09-14T06:21:31.363Z,11.23
2022-09-14T06:26:40.155Z,11.63
2022-09-14T06:31:48.074Z,11.93
2022-09-14T06:36:56.083Z,9.93
2022-09-14T06:42:03.890Z,11.70
2022-09-14T06:47:11.743Z,13.50
2022-09-14T06:52:19.556Z,12.03
2022-09-14T06:57:27.311Z,13.83
2022-09-14T07:02:35.184Z,12.37
2022-09-14T07:07:43.017Z,11.73
2022-09-14T07:12:51.318Z,12.90
2022-09-14T07:17:59.182Z,13.57
2022-09-14T07:23:07.006Z,13.50
2022-09-14T07:28:14.776Z,12.83
2022-09-14T07:33:22.600Z,12.50
2022-09-14T07:38:50.608Z,13.03
2022-09-14T07:43:40.382Z,12.27
2022-09-14T07:48:49.233Z,10.67
2022-09-14T07:53:57.086Z,10.30
2022-09-14T08:04:16.156Z,9.50
2022-09-14T08:09:24.690Z,10.27
2022-09-14T08:14:32.542Z,10.17
2022-09-14T08:19:41.510Z,8.90
2022-09-14T08:24:49.329Z,12.63
2022-09-14T08:29:57.148Z,10.10
2022-09-14T08:35:06.773Z,9.33
2022-09-14T08:40:14.635Z,9.10
2022-09-14T08:45:24.259Z,8.90
2022-09-14T08:50:38.195Z,8.80
2022-09-14T08:55:46.248Z,10.50
2022-09-14T09:00:58.685Z,8.80
2022-09-14T09:06:13.894Z,7.00
2022-09-14T09:11:21.512Z,7.40
2022-09-14T09:16:29.883Z,7.37
2022-09-14T09:21:40.789Z,8.17
2022-09-14T09:26:48.684Z,5.83
2022-09-14T09:31:58.047Z,7.53
2022-09-14T09:37:15.812Z,6.13
2022-09-14T09:47:39.962Z,7.83
2022-09-14T09:52:50.975Z,6.63
2022-09-14T09:57:59.119Z,7.20
2022-09-14T10:03:07.063Z,6.30
2022-09-14T10:08:16.889Z,6.67
2022-09-14T10:13:27.420Z,7.47
2022-09-14T10:18:35.974Z,6.77
2022-09-14T10:23:43.893Z,6.00
2022-09-14T10:28:52.553Z,5.77
2022-09-14T10:34:01.039Z,7.07
2022-09-14T10:39:13.146Z,5.37
2022-09-14T10:49:42.951Z,7.30
2022-09-14T10:54:54.512Z,6.83
2022-09-14T11:00:07.078Z,5.63
2022-09-14T11:05:18.897Z,7.13
2022-09-14T11:10:30.862Z,6.50
2022-09-14T11:15:41.901Z,5.50
2022-09-14T11:20:54.642Z,4.97
2022-09-14T11:31:19.795Z,5.93
2022-09-14T11:36:30.257Z,4.77
2022-09-14T11:41:42.060Z,5.37
2022-09-14T11:46:52.897Z,5.87
2022-09-14T11:52:04.669Z,5.87
2022-09-14T11:57:15.604Z,6.27
2022-09-14T12:02:28.263Z,4.33
2022-09-14T12:07:39.682Z,4.97
2022-09-14T12:12:50.380Z,5.57
2022-09-14T12:18:01.413Z,5.37
2022-09-14T12:23:12.372Z,6.33
2022-09-14T12:28:24.812Z,5.57
2022-09-14T12:33:36.480Z,4.20
2022-09-14T12:38:46.764Z,5.47
2022-09-14T12:43:55.886Z,5.13
2022-09-14T12:49:06.758Z,6.10
2022-09-14T12:54:17.709Z,6.50
2022-09-14T12:59:30.020Z,6.23
2022-09-14T13:04:39.091Z,6.17
2022-09-14T13:09:48.650Z,6.73
2022-09-14T13:14:59.415Z,7.23
2022-09-14T13:20:08.967Z,7.23
2022-09-14T13:25:19.920Z,7.17
2022-09-14T13:30:28.536Z,7.13
2022-09-14T13:35:41.061Z,6.80
2022-09-14T13:40:53.300Z,6.73
2022-09-14T13:46:01.803Z,5.87
2022-09-14T13:51:11.407Z,8.13
2022-09-14T14:01:46.080Z,6.80
2022-09-14T14:06:57.316Z,7.20
2022-09-14T14:12:07.775Z,7.00
2022-09-14T14:17:20.866Z,6.80
2022-09-14T14:22:32.076Z,6.53
2022-09-14T14:27:43.684Z,6.90
2022-09-14T14:32:52.793Z,6.97
2022-09-14T14:38:00.799Z,6.13
2022-09-14T14:43:11.729Z,6.67
2022-09-14T14:48:20.952Z,6.07
2022-09-14T14:53:28.917Z,6.17
2022-09-14T14:58:38.387Z,6.30
2022-09-14T15:03:46.557Z,6.37
2022-09-14T15:08:56.821Z,5.90
2022-09-14T15:14:05.147Z,6.00
2022-09-14T15:19:13.975Z,6.03
2022-09-14T15:24:22.010Z,6.17
2022-09-14T15:29:29.950Z,6.07
2022-09-14T15:34:37.991Z,5.37
2022-09-14T15:39:50.079Z,5.40
2022-09-14T15:44:57.182Z,6.03
2022-09-14T15:50:06.729Z,5.93
2022-09-14T15:55:14.592Z,6.60
2022-09-14T16:00:22.445Z,6.37
2022-09-14T16:05:31.159Z,5.87
2022-09-14T16:10:40.002Z,5.83
2022-09-14T16:15:49.524Z,6.30
2022-09-14T16:20:59.220Z,6.63
2022-09-14T16:26:10.698Z,6.33
2022-09-14T16:31:24.555Z,6.97
2022-09-14T16:36:34.833Z,7.40
2022-09-14T16:41:44.573Z,7.87
2022-09-14T16:46:53.471Z,7.97
2022-09-14T16:52:03.159Z,8.13
2022-09-14T16:57:14.888Z,8.43
2022-09-14T17:02:26.873Z,9.00
2022-09-14T17:07:37.084Z,9.97
2022-09-14T17:12:47.452Z,10.33
2022-09-14T17:17:56.414Z,9.80
2022-09-14T17:23:04.644Z,9.80
2022-09-14T17:28:13.571Z,9.37
2022-09-14T17:33:23.516Z,10.17
2022-09-14T17:38:38.012Z,10.40
2022-09-14T17:43:48.355Z,11.43
2022-09-14T17:48:58.951Z,12.60
2022-09-14T17:54:08.729Z,11.57
2022-09-14T17:59:20.589Z,10.10
2022-09-14T18:04:28.840Z,9.80
2022-09-14T18:09:36.795Z,10.57
2022-09-14T18:14:46.116Z,9.27
2022-09-14T18:19:55.964Z,9.43
2022-09-14T18:25:04.877Z,10.03
2022-09-14T18:30:13.668Z,11.23
2022-09-14T18:35:22.003Z,9.57
2022-09-14T18:40:30.245Z,10.70
2022-09-14T18:45:38.908Z,10.43
2022-09-14T18:50:49.901Z,10.97
2022-09-14T19:01:39.283Z,10.50
2022-09-14T19:07:00.556Z,11.83
2022-09-14T19:12:10.894Z,12.40
2022-09-14T19:17:20.420Z,11.10
2022-09-14T19:22:30.068Z,11.53
2022-09-14T19:27:38.670Z,11.27
2022-09-14T19:32:47.264Z,11.80
2022-09-14T19:37:55.488Z,11.30
2022-09-14T19:43:04.813Z,10.23
2022-09-14T19:48:13.296Z,9.93
2022-09-14T19:53:21.197Z,12.40
2022-09-14T19:58:30.174Z,11.90
2022-09-14T20:03:41.290Z,10.77
2022-09-14T20:08:50.393Z,12.47
2022-09-14T20:13:59.416Z,11.47
2022-09-14T20:19:10.721Z,12.73
2022-09-14T20:24:23.267Z,13.23
2022-09-14T20:29:32.415Z,13.43
2022-09-14T20:34:41.432Z,14.93
2022-09-14T20:39:49.731Z,14.93
2022-09-14T20:45:00.729Z,12.87
2022-09-14T20:50:48.170Z,13.63
2022-09-14T20:56:03.017Z,14.23
2022-09-14T21:01:14.086Z,12.80
2022-09-14T21:06:24.443Z,11.70
2022-09-14T21:11:34.081Z,12.93
2022-09-14T21:16:45.933Z,11.17
2022-09-14T21:21:54.470Z,10.83
2022-09-14T21:27:04.917Z,10.53
2022-09-14T21:32:13.592Z,9.77
2022-09-14T21:37:22.203Z,10.30
2022-09-14T21:42:30.918Z,9.53
2022-09-14T21:47:39.246Z,9.17
2022-09-14T21:52:47.275Z,8.97
2022-09-14T21:57:55.871Z,8.03
2022-09-14T22:03:04.046Z,8.73
2022-09-14T22:08:13.482Z,8.37
2022-09-14T22:13:21.408Z,8.67
2022-09-14T22:18:30.319Z,8.90
2022-09-14T22:23:39.196Z,8.40
2022-09-14T22:28:48.694Z,7.80
2022-09-14T22:33:58.082Z,8.40
2022-09-14T22:39:07.949Z,8.30
2022-09-14T22:44:15.933Z,8.57
2022-09-14T22:49:23.899Z,7.07
2022-09-14T22:54:31.819Z,7.90
2022-09-14T22:59:39.744Z,8.43
2022-09-14T23:04:49.946Z,9.13
2022-09-14T23:09:58.411Z,9.00
2022-09-14T23:15:06.788Z,10.50
2022-09-14T23:20:14.693Z,11.00
2022-09-14T23:25:22.920Z,12.47
2022-09-14T23:30:31.794Z,13.73
2022-09-14T23:35:41.475Z,18.47
2022-09-14T23:40:50.730Z,19.10
2022-09-14T23:45:58.794Z,16.10
2022-09-14T23:51:11.455Z,13.73
2022-09-14T23:56:19.307Z,12.63
